createdAt,value
2022-10-31T00:03:12.467Z,12.39
2022-10-31T00:08:14.945Z,12.26
2022-10-31T00:13:17.136Z,12.49
2022-10-31T00:18:19.096Z,12.49
2022-10-31T00:23:20.920Z,12.60
2022-10-31T00:28:25.414Z,12.62
2022-10-31T00:33:28.522Z,12.59
2022-10-31T00:38:31.412Z,12.68
2022-10-31T00:43:33.313Z,12.55
2022-10-31T00:48:35.275Z,12.66
2022-10-31T00:53:37.484Z,12.64
2022-10-31T00:58:39.536Z,12.58
2022-10-31T01:03:42.499Z,12.56
2022-10-31T01:08:48.183Z,12.46
2022-10-31T01:13:54.627Z,12.48
2022-10-31T01:18:56.566Z,12.48
2022-10-31T01:23:58.469Z,12.46
2022-10-31T01:29:09.565Z,12.28
2022-10-31T01:34:15.716Z,12.26
2022-10-31T01:39:19.650Z,12.38
2022-10-31T01:44:22.280Z,12.42
2022-10-31T01:49:39.211Z,12.19
2022-10-31T01:54:45.153Z,12.39
2022-10-31T01:59:49.860Z,12.38
2022-10-31T02:04:51.922Z,12.36
2022-10-31T02:09:55.164Z,12.41
2022-10-31T02:14:58.635Z,12.47
2022-10-31T02:20:20.197Z,12.45
2022-10-31T02:25:22.221Z,12.48
2022-10-31T02:30:26.038Z,12.43
2022-10-31T02:35:38.624Z,12.22
2022-10-31T02:40:43.586Z,12.20
2022-10-31T02:46:50.473Z,12.47
2022-10-31T02:51:52.396Z,12.40
2022-10-31T02:57:00.248Z,12.44
2022-10-31T03:02:17.728Z,12.39
2022-10-31T03:07:22.748Z,12.35
2022-10-31T03:12:44.560Z,12.19
2022-10-31T03:18:02.128Z,12.21
2022-10-31T03:23:08.097Z,12.22
2022-10-31T03:28:11.563Z,12.18
2022-10-31T03:33:19.220Z,12.20
2022-10-31T03:38:23.093Z,12.18
2022-10-31T03:43:29.796Z,12.08
2022-10-31T03:48:31.960Z,11.94
2022-10-31T03:53:38.244Z,12.06
2022-10-31T03:58:46.180Z,12.02
2022-10-31T04:03:49.130Z,11.86
2022-10-31T04:08:58.635Z,12.03
2022-10-31T04:14:01.675Z,12.13
2022-10-31T04:19:03.812Z,12.15
2022-10-31T04:24:06.145Z,11.92
2022-10-31T04:29:08.748Z,12.13
2022-10-31T04:34:10.603Z,11.83
2022-10-31T04:39:12.614Z,11.87
2022-10-31T04:44:21.339Z,11.90
2022-10-31T04:49:26.751Z,12.13
2022-10-31T04:54:28.885Z,12.10
2022-10-31T04:59:49.231Z,12.11
2022-10-31T05:04:51.448Z,11.78
2022-10-31T05:09:54.262Z,12.14
2022-10-31T05:14:57.324Z,12.13
2022-10-31T05:20:19.145Z,12.10
2022-10-31T05:25:42.604Z,12.09
2022-10-31T05:30:44.528Z,12.02
2022-10-31T05:35:50.141Z,12.02
2022-10-31T05:41:07.475Z,12.05
2022-10-31T05:46:09.922Z,12.05
2022-10-31T05:51:30.348Z,12.06
2022-10-31T05:56:32.499Z,12.15
2022-10-31T06:01:35.401Z,12.17
2022-10-31T06:06:41.385Z,12.12
2022-10-31T06:11:43.828Z,12.19
2022-10-31T06:17:00.811Z,12.17
2022-10-31T06:29:53.595Z,12.21
2022-10-31T06:35:04.085Z,11.95
2022-10-31T06:40:09.178Z,12.21
2022-10-31T06:45:31.012Z,12.24
2022-10-31T06:51:00.250Z,12.22
2022-10-31T06:56:04.827Z,12.17
2022-10-31T07:01:44.558Z,12.24
2022-10-31T07:06:51.674Z,12.31
2022-10-31T07:11:54.608Z,12.09
2022-10-31T07:16:56.720Z,12.39
2022-10-31T07:22:05.474Z,12.14
2022-10-31T07:27:08.860Z,12.43
2022-10-31T07:32:10.940Z,12.51
2022-10-31T07:37:18.715Z,12.54
2022-10-31T07:42:20.639Z,12.31
2022-10-31T07:47:22.715Z,12.59
2022-10-31T07:52:43.408Z,12.62
2022-10-31T07:58:17.389Z,12.66
2022-10-31T08:03:20.395Z,12.68
2022-10-31T08:08:40.658Z,12.70
2022-10-31T08:13:44.440Z,12.78
2022-10-31T08:18:49.570Z,12.80
2022-10-31T08:23:51.828Z,12.86
2022-10-31T08:28:56.507Z,12.95
2022-10-31T08:34:01.600Z,13.00
2022-10-31T08:39:42.281Z,13.06
2022-10-31T08:44:44.415Z,13.09
2022-10-31T08:49:46.351Z,13.15
2022-10-31T08:54:49.357Z,13.22
2022-10-31T09:00:20.640Z,13.13
2022-10-31T09:05:36.314Z,13.25
2022-10-31T09:10:38.621Z,13.45
2022-10-31T09:15:42.412Z,13.56
2022-10-31T09:20:54.986Z,13.57
2022-10-31T09:25:57.318Z,13.65
2022-10-31T09:31:18.306Z,13.71
2022-10-31T09:36:39.984Z,13.75
2022-10-31T09:41:51.822Z,13.86
2022-10-31T09:47:43.368Z,13.79
2022-10-31T09:53:08.602Z,14.13
2022-10-31T09:58:22.214Z,14.16
2022-10-31T10:03:42.112Z,13.99
2022-10-31T10:09:04.140Z,14.24
2022-10-31T10:14:53.631Z,14.29
2022-10-31T10:20:24.385Z,14.31
2022-10-31T10:25:42.974Z,14.38
2022-10-31T10:30:50.031Z,14.27
2022-10-31T10:35:54.304Z,14.49
2022-10-31T10:40:56.563Z,14.57
2022-10-31T10:46:52.816Z,14.64
2022-10-31T10:52:13.324Z,14.49
2022-10-31T10:57:35.032Z,14.55
2022-10-31T11:02:37.021Z,14.77
2022-10-31T11:07:41.961Z,14.77
2022-10-31T11:12:46.570Z,14.90
2022-10-31T11:17:51.566Z,14.99
2022-10-31T11:23:03.015Z,15.00
2022-10-31T11:35:30.300Z,15.15
2022-10-31T11:40:32.344Z,15.28
2022-10-31T11:45:35.242Z,15.33
2022-10-31T11:50:41.218Z,15.32
2022-10-31T11:55:44.858Z,15.35
2022-10-31T12:01:56.679Z,15.39
2022-10-31T12:06:58.964Z,15.25
2022-10-31T12:12:03.697Z,15.36
2022-10-31T12:17:05.513Z,15.49
2022-10-31T12:22:19.104Z,15.57
2022-10-31T12:27:25.168Z,15.54
2022-10-31T12:33:01.750Z,15.56
2022-10-31T12:38:29.331Z,15.58
2022-10-31T12:43:52.350Z,15.47
2022-10-31T12:49:18.376Z,15.60
2022-10-31T12:54:35.138Z,15.51
2022-10-31T12:59:42.602Z,15.55
2022-10-31T13:05:02.499Z,15.47
2022-10-31T13:10:14.278Z,15.39
2022-10-31T13:15:23.481Z,15.37
2022-10-31T13:20:34.369Z,15.30
2022-10-31T13:25:41.671Z,15.27
2022-10-31T13:30:44.380Z,15.30
2022-10-31T13:36:14.352Z,15.32
2022-10-31T13:41:44.123Z,15.32
2022-10-31T13:46:46.342Z,15.10
2022-10-31T13:51:49.849Z,15.30
2022-10-31T13:56:52.803Z,15.30
2022-10-31T14:01:57.714Z,15.26
2022-10-31T14:07:08.852Z,15.31
2022-10-31T14:12:23.641Z,15.21
2022-10-31T14:17:28.205Z,15.24
2022-10-31T14:22:36.317Z,14.94
2022-10-31T14:27:48.054Z,15.10
2022-10-31T14:33:18.226Z,15.02
2022-10-31T14:38:32.531Z,15.02
2022-10-31T14:43:58.075Z,14.98
2022-10-31T14:49:35.052Z,14.94
2022-10-31T14:54:43.912Z,14.88
2022-10-31T14:59:50.550Z,14.68
2022-10-31T15:04:54.057Z,14.77
2022-10-31T15:09:57.569Z,14.88
2022-10-31T15:15:12.613Z,14.87
2022-10-31T15:20:19.326Z,14.79
2022-10-31T15:25:23.731Z,14.68
2022-10-31T15:30:28.988Z,14.79
2022-10-31T15:35:31.908Z,14.79
2022-10-31T15:40:34.413Z,14.58
2022-10-31T15:45:36.556Z,14.42
2022-10-31T15:50:41.465Z,14.46
2022-10-31T15:55:50.581Z,14.40
2022-10-31T16:01:04.102Z,14.42
2022-10-31T16:06:07.480Z,14.39
2022-10-31T16:11:13.722Z,14.39
2022-10-31T16:21:39.692Z,14.36
2022-10-31T16:26:41.564Z,14.28
2022-10-31T16:31:43.640Z,14.55
2022-10-31T16:36:45.626Z,14.54
2022-10-31T16:41:51.834Z,14.52
2022-10-31T16:47:10.242Z,14.34
2022-10-31T16:52:12.374Z,14.52
2022-10-31T16:57:21.014Z,14.41
2022-10-31T17:02:23.125Z,14.42
2022-10-31T17:14:20.392Z,14.35
2022-10-31T17:19:22.395Z,14.35
2022-10-31T17:24:24.449Z,14.39
2022-10-31T17:29:26.590Z,14.32
2022-10-31T17:34:28.742Z,14.37
2022-10-31T17:39:30.710Z,14.18
2022-10-31T17:44:32.894Z,14.35
2022-10-31T17:49:34.833Z,14.31
2022-10-31T17:54:41.611Z,14.32
2022-10-31T17:59:43.760Z,14.32
2022-10-31T18:04:45.731Z,14.32
2022-10-31T18:09:48.006Z,14.14
2022-10-31T18:14:51.843Z,14.26
2022-10-31T18:19:53.751Z,14.23
2022-10-31T18:25:00.857Z,14.18
2022-10-31T18:30:04.208Z,14.18
2022-10-31T18:35:06.911Z,14.18
2022-10-31T18:40:09.383Z,14.17
2022-10-31T18:45:23.929Z,14.18
2022-10-31T18:50:33.471Z,13.95
2022-10-31T18:55:43.984Z,14.12
2022-10-31T19:00:49.476Z,14.14
2022-10-31T19:05:55.310Z,14.10
2022-10-31T19:11:04.431Z,14.07
2022-10-31T19:16:17.108Z,14.06
2022-10-31T19:21:19.078Z,14.04
2022-10-31T19:26:53.398Z,14.03
2022-10-31T19:31:55.297Z,13.98
2022-10-31T19:36:57.346Z,14.01
2022-10-31T19:41:59.395Z,14.09
2022-10-31T19:47:01.290Z,14.07
2022-10-31T19:52:03.391Z,14.09
2022-10-31T19:57:05.272Z,14.07
2022-10-31T20:02:07.647Z,14.08
2022-10-31T20:07:41.382Z,14.10
2022-10-31T20:12:43.434Z,14.10
2022-10-31T20:17:45.963Z,13.88
2022-10-31T20:22:50.289Z,14.06
2022-10-31T20:27:53.032Z,14.08
2022-10-31T20:33:38.645Z,14.05
2022-10-31T20:38:41.619Z,14.04
2022-10-31T20:43:44.395Z,14.00
2022-10-31T20:48:46.558Z,13.99
2022-10-31T20:53:49.663Z,13.99
2022-10-31T20:58:51.980Z,14.01
2022-10-31T21:03:53.998Z,14.00
2022-10-31T21:08:58.071Z,13.97
2022-10-31T21:14:00.110Z,13.90
2022-10-31T21:19:05.200Z,13.83
2022-10-31T21:29:21.686Z,13.71
2022-10-31T21:34:23.652Z,13.81
2022-10-31T21:39:27.843Z,13.81
2022-10-31T21:44:29.688Z,13.59
2022-10-31T21:49:31.661Z,13.82
2022-10-31T21:54:33.795Z,13.86
2022-10-31T21:59:38.087Z,13.85
2022-10-31T22:04:41.283Z,13.84
2022-10-31T22:09:47.397Z,13.78
2022-10-31T22:14:49.287Z,13.83
2022-10-31T22:19:51.250Z,13.51
2022-10-31T22:24:53.163Z,13.68
2022-10-31T22:29:56.698Z,13.65
2022-10-31T22:34:59.396Z,13.67
2022-10-31T22:40:01.447Z,13.67
2022-10-31T22:45:03.876Z,13.68
2022-10-31T22:50:06.190Z,13.68
2022-10-31T22:55:09.364Z,13.70
2022-10-31T23:00:11.756Z,13.67
2022-10-31T23:05:14.156Z,13.61
2022-10-31T23:10:16.028Z,13.62
2022-10-31T23:15:18.801Z,13.49
2022-10-31T23:20:20.799Z,13.65
2022-10-31T23:25:41.536Z,13.66
2022-10-31T23:30:46.615Z,13.67
2022-10-31T23:35:48.622Z,13.66
2022-10-31T23:40:50.433Z,13.68
2022-10-31T23:45:52.428Z,13.65
2022-10-31T23:50:54.409Z,13.66
2022-10-31T23:55:56.321Z,13.74
